sensor_id;sensor_type;location;lat;lon;timestamp;P1;durP1;ratioP1;P2;durP2;ratioP2
76896;SDS011;65856;52.178;21.176;2023-06-26T00:01:17;11.90;;;7.90;;
76896;SDS011;65856;52.178;21.176;2023-06-26T00:03:46;11.80;;;7.80;;
76896;SDS011;65856;52.178;21.176;2023-06-26T00:06:12;11.10;;;7.70;;
76896;SDS011;65856;52.178;21.176;2023-06-26T00:08:38;12.20;;;7.20;;
76896;SDS011;65856;52.178;21.176;2023-06-26T00:11:04;10.30;;;7.70;;
76896;SDS011;65856;52.178;21.176;2023-06-26T00:13:30;11.80;;;7.90;;
76896;SDS011;65856;52.178;21.176;2023-06-26T00:15:55;9.90;;;7.30;;
76896;SDS011;65856;52.178;21.176;2023-06-26T00:18:21;11.00;;;7.50;;
76896;SDS011;65856;52.178;21.176;2023-06-26T00:20:48;10.70;;;7.30;;
76896;SDS011;65856;52.178;21.176;2023-06-26T00:23:16;11.10;;;7.80;;
76896;SDS011;65856;52.178;21.176;2023-06-26T00:25:42;10.50;;;7.30;;
76896;SDS011;65856;52.178;21.176;2023-06-26T00:28:08;9.00;;;7.00;;
76896;SDS011;65856;52.178;21.176;2023-06-26T00:30:34;11.40;;;7.90;;
76896;SDS011;65856;52.178;21.176;2023-06-26T00:33:00;12.80;;;7.80;;
76896;SDS011;65856;52.178;21.176;2023-06-26T00:35:27;10.70;;;7.60;;
76896;SDS011;65856;52.178;21.176;2023-06-26T00:37:52;9.80;;;7.20;;
76896;SDS011;65856;52.178;21.176;2023-06-26T00:40:18;10.40;;;7.70;;
76896;SDS011;65856;52.178;21.176;2023-06-26T00:42:43;10.10;;;7.60;;
76896;SDS011;65856;52.178;21.176;2023-06-26T00:45:09;10.80;;;7.80;;
76896;SDS011;65856;52.178;21.176;2023-06-26T00:47:34;10.30;;;7.30;;
76896;SDS011;65856;52.178;21.176;2023-06-26T00:50:02;10.30;;;7.60;;
76896;SDS011;65856;52.178;21.176;2023-06-26T00:52:29;9.30;;;6.90;;
76896;SDS011;65856;52.178;21.176;2023-06-26T00:54:55;9.90;;;7.10;;
76896;SDS011;65856;52.178;21.176;2023-06-26T00:57:21;10.00;;;7.00;;
76896;SDS011;65856;52.178;21.176;2023-06-26T00:59:48;9.10;;;7.00;;
76896;SDS011;65856;52.178;21.176;2023-06-26T01:02:14;10.80;;;6.90;;
76896;SDS011;65856;52.178;21.176;2023-06-26T01:04:43;8.50;;;6.80;;
76896;SDS011;65856;52.178;21.176;2023-06-26T01:07:13;9.00;;;6.90;;
76896;SDS011;65856;52.178;21.176;2023-06-26T01:09:39;10.10;;;6.80;;
76896;SDS011;65856;52.178;21.176;2023-06-26T01:12:07;9.30;;;7.10;;
76896;SDS011;65856;52.178;21.176;2023-06-26T01:14:36;9.10;;;7.10;;
76896;SDS011;65856;52.178;21.176;2023-06-26T01:17:02;11.70;;;7.40;;
76896;SDS011;65856;52.178;21.176;2023-06-26T01:19:30;9.70;;;7.30;;
76896;SDS011;65856;52.178;21.176;2023-06-26T01:22:06;9.40;;;7.00;;
76896;SDS011;65856;52.178;21.176;2023-06-26T01:24:52;10.40;;;6.80;;
76896;SDS011;65856;52.178;21.176;2023-06-26T01:27:30;9.20;;;6.90;;
76896;SDS011;65856;52.178;21.176;2023-06-26T01:29:59;9.00;;;6.90;;
76896;SDS011;65856;52.178;21.176;2023-06-26T01:32:29;12.20;;;7.00;;
76896;SDS011;65856;52.178;21.176;2023-06-26T01:34:58;9.10;;;6.60;;
76896;SDS011;65856;52.178;21.176;2023-06-26T01:37:24;8.60;;;6.50;;
76896;SDS011;65856;52.178;21.176;2023-06-26T01:39:50;8.80;;;6.90;;
76896;SDS011;65856;52.178;21.176;2023-06-26T01:42:16;8.60;;;6.80;;
76896;SDS011;65856;52.178;21.176;2023-06-26T01:44:45;7.90;;;6.20;;
76896;SDS011;65856;52.178;21.176;2023-06-26T01:47:16;8.80;;;7.00;;
76896;SDS011;65856;52.178;21.176;2023-06-26T01:49:54;8.50;;;6.40;;
76896;SDS011;65856;52.178;21.176;2023-06-26T01:55:21;9.10;;;6.90;;
76896;SDS011;65856;52.178;21.176;2023-06-26T01:57:59;8.90;;;6.50;;
76896;SDS011;65856;52.178;21.176;2023-06-26T02:00:24;7.80;;;6.40;;
76896;SDS011;65856;52.178;21.176;2023-06-26T02:02:51;8.10;;;6.80;;
76896;SDS011;65856;52.178;21.176;2023-06-26T02:05:17;9.10;;;6.60;;
76896;SDS011;65856;52.178;21.176;2023-06-26T02:07:43;10.40;;;6.40;;
76896;SDS011;65856;52.178;21.176;2023-06-26T02:10:09;8.60;;;7.00;;
76896;SDS011;65856;52.178;21.176;2023-06-26T02:12:36;9.50;;;6.50;;
76896;SDS011;65856;52.178;21.176;2023-06-26T02:15:03;8.40;;;6.10;;
76896;SDS011;65856;52.178;21.176;2023-06-26T02:17:29;9.70;;;6.80;;
76896;SDS011;65856;52.178;21.176;2023-06-26T02:19:56;8.00;;;6.20;;
76896;SDS011;65856;52.178;21.176;2023-06-26T02:22:21;8.40;;;6.50;;
76896;SDS011;65856;52.178;21.176;2023-06-26T02:24:47;9.30;;;6.70;;
76896;SDS011;65856;52.178;21.176;2023-06-26T02:27:13;9.70;;;6.70;;
76896;SDS011;65856;52.178;21.176;2023-06-26T02:29:39;8.90;;;6.40;;
76896;SDS011;65856;52.178;21.176;2023-06-26T02:32:06;8.50;;;6.30;;
76896;SDS011;65856;52.178;21.176;2023-06-26T02:34:32;10.30;;;7.00;;
76896;SDS011;65856;52.178;21.176;2023-06-26T02:36:58;8.70;;;6.50;;
76896;SDS011;65856;52.178;21.176;2023-06-26T02:39:25;9.80;;;6.50;;
76896;SDS011;65856;52.178;21.176;2023-06-26T02:41:52;9.30;;;6.50;;
76896;SDS011;65856;52.178;21.176;2023-06-26T02:44:17;8.90;;;6.20;;
76896;SDS011;65856;52.178;21.176;2023-06-26T02:46:43;7.50;;;6.40;;
76896;SDS011;65856;52.178;21.176;2023-06-26T02:49:09;9.60;;;6.60;;
76896;SDS011;65856;52.178;21.176;2023-06-26T02:51:35;8.40;;;6.10;;
76896;SDS011;65856;52.178;21.176;2023-06-26T02:54:00;7.70;;;6.30;;
76896;SDS011;65856;52.178;21.176;2023-06-26T02:56:27;12.30;;;6.90;;
76896;SDS011;65856;52.178;21.176;2023-06-26T02:58:56;10.80;;;7.10;;
76896;SDS011;65856;52.178;21.176;2023-06-26T03:01:22;16.00;;;7.00;;
76896;SDS011;65856;52.178;21.176;2023-06-26T03:03:48;9.50;;;6.80;;
76896;SDS011;65856;52.178;21.176;2023-06-26T03:06:14;10.00;;;6.90;;
76896;SDS011;65856;52.178;21.176;2023-06-26T03:08:40;10.20;;;7.00;;
76896;SDS011;65856;52.178;21.176;2023-06-26T03:11:08;7.30;;;5.90;;
76896;SDS011;65856;52.178;21.176;2023-06-26T03:13:34;10.00;;;6.70;;
76896;SDS011;65856;52.178;21.176;2023-06-26T03:16:02;10.10;;;7.00;;
76896;SDS011;65856;52.178;21.176;2023-06-26T03:18:29;8.70;;;6.70;;
76896;SDS011;65856;52.178;21.176;2023-06-26T03:20:57;8.70;;;6.60;;
76896;SDS011;65856;52.178;21.176;2023-06-26T03:23:23;10.90;;;7.40;;
76896;SDS011;65856;52.178;21.176;2023-06-26T03:25:49;10.80;;;7.00;;
76896;SDS011;65856;52.178;21.176;2023-06-26T03:28:15;10.10;;;7.00;;
76896;SDS011;65856;52.178;21.176;2023-06-26T03:30:41;8.90;;;6.70;;
76896;SDS011;65856;52.178;21.176;2023-06-26T03:33:06;10.10;;;6.80;;
76896;SDS011;65856;52.178;21.176;2023-06-26T03:35:32;9.80;;;7.00;;
76896;SDS011;65856;52.178;21.176;2023-06-26T03:37:58;9.80;;;7.10;;
76896;SDS011;65856;52.178;21.176;2023-06-26T03:40:25;11.00;;;7.00;;
76896;SDS011;65856;52.178;21.176;2023-06-26T03:42:51;9.70;;;7.60;;
76896;SDS011;65856;52.178;21.176;2023-06-26T03:45:17;8.70;;;7.10;;
76896;SDS011;65856;52.178;21.176;2023-06-26T03:47:44;8.10;;;7.00;;
76896;SDS011;65856;52.178;21.176;2023-06-26T03:50:09;9.80;;;7.30;;
76896;SDS011;65856;52.178;21.176;2023-06-26T03:52:35;8.80;;;7.00;;
76896;SDS011;65856;52.178;21.176;2023-06-26T03:55:00;11.70;;;7.60;;
76896;SDS011;65856;52.178;21.176;2023-06-26T03:57:26;9.70;;;7.10;;
76896;SDS011;65856;52.178;21.176;2023-06-26T03:59:52;9.30;;;7.00;;
76896;SDS011;65856;52.178;21.176;2023-06-26T04:02:18;11.70;;;7.30;;
76896;SDS011;65856;52.178;21.176;2023-06-26T04:04:44;10.20;;;7.60;;
76896;SDS011;65856;52.178;21.176;2023-06-26T04:07:10;11.30;;;7.20;;
76896;SDS011;65856;52.178;21.176;2023-06-26T04:09:35;11.40;;;7.60;;
76896;SDS011;65856;52.178;21.176;2023-06-26T04:12:01;13.00;;;8.80;;
76896;SDS011;65856;52.178;21.176;2023-06-26T04:14:27;12.60;;;7.80;;
76896;SDS011;65856;52.178;21.176;2023-06-26T04:16:52;12.70;;;8.20;;
76896;SDS011;65856;52.178;21.176;2023-06-26T04:19:18;14.80;;;9.70;;
76896;SDS011;65856;52.178;21.176;2023-06-26T04:21:43;13.30;;;9.10;;
76896;SDS011;65856;52.178;21.176;2023-06-26T04:24:09;14.60;;;10.20;;
76896;SDS011;65856;52.178;21.176;2023-06-26T04:26:34;13.40;;;10.00;;
76896;SDS011;65856;52.178;21.176;2023-06-26T04:29:01;13.80;;;9.50;;
76896;SDS011;65856;52.178;21.176;2023-06-26T04:31:27;17.10;;;10.90;;
76896;SDS011;65856;52.178;21.176;2023-06-26T04:33:52;14.50;;;10.10;;
76896;SDS011;65856;52.178;21.176;2023-06-26T04:36:20;15.00;;;11.10;;
76896;SDS011;65856;52.178;21.176;2023-06-26T04:38:46;14.20;;;10.30;;
76896;SDS011;65856;52.178;21.176;2023-06-26T04:41:15;14.70;;;10.80;;
76896;SDS011;65856;52.178;21.176;2023-06-26T04:43:40;14.60;;;10.90;;
76896;SDS011;65856;52.178;21.176;2023-06-26T04:46:06;16.10;;;11.20;;
76896;SDS011;65856;52.178;21.176;2023-06-26T04:48:32;16.90;;;11.30;;
76896;SDS011;65856;52.178;21.176;2023-06-26T04:50:58;21.80;;;11.10;;
76896;SDS011;65856;52.178;21.176;2023-06-26T04:53:24;15.20;;;11.50;;
76896;SDS011;65856;52.178;21.176;2023-06-26T04:55:51;16.30;;;11.50;;
76896;SDS011;65856;52.178;21.176;2023-06-26T04:58:18;16.10;;;10.50;;
76896;SDS011;65856;52.178;21.176;2023-06-26T05:00:44;17.50;;;11.00;;
76896;SDS011;65856;52.178;21.176;2023-06-26T05:03:11;15.50;;;11.10;;
76896;SDS011;65856;52.178;21.176;2023-06-26T05:05:39;12.40;;;9.50;;
76896;SDS011;65856;52.178;21.176;2023-06-26T05:08:17;13.50;;;10.40;;
76896;SDS011;65856;52.178;21.176;2023-06-26T05:10:48;14.40;;;10.20;;
76896;SDS011;65856;52.178;21.176;2023-06-26T05:13:14;19.20;;;9.60;;
76896;SDS011;65856;52.178;21.176;2023-06-26T05:15:45;14.80;;;10.20;;
76896;SDS011;65856;52.178;21.176;2023-06-26T05:18:11;19.10;;;10.50;;
76896;SDS011;65856;52.178;21.176;2023-06-26T05:20:38;16.60;;;10.30;;
76896;SDS011;65856;52.178;21.176;2023-06-26T05:23:04;18.00;;;10.20;;
76896;SDS011;65856;52.178;21.176;2023-06-26T05:25:31;19.50;;;11.20;;
76896;SDS011;65856;52.178;21.176;2023-06-26T05:27:59;26.00;;;10.60;;
76896;SDS011;65856;52.178;21.176;2023-06-26T05:30:26;21.80;;;10.60;;
76896;SDS011;65856;52.178;21.176;2023-06-26T05:32:53;18.30;;;10.10;;
76896;SDS011;65856;52.178;21.176;2023-06-26T05:35:23;19.30;;;9.80;;
76896;SDS011;65856;52.178;21.176;2023-06-26T05:37:50;18.70;;;9.50;;
76896;SDS011;65856;52.178;21.176;2023-06-26T05:40:17;15.70;;;9.60;;
76896;SDS011;65856;52.178;21.176;2023-06-26T05:42:44;20.60;;;9.90;;
76896;SDS011;65856;52.178;21.176;2023-06-26T05:45:10;15.70;;;8.70;;
76896;SDS011;65856;52.178;21.176;2023-06-26T05:47:36;13.60;;;8.40;;
76896;SDS011;65856;52.178;21.176;2023-06-26T05:50:03;17.10;;;9.40;;
76896;SDS011;65856;52.178;21.176;2023-06-26T05:52:30;12.90;;;8.70;;
76896;SDS011;65856;52.178;21.176;2023-06-26T05:54:56;20.10;;;9.20;;
76896;SDS011;65856;52.178;21.176;2023-06-26T05:57:26;15.40;;;8.30;;
76896;SDS011;65856;52.178;21.176;2023-06-26T05:59:54;15.30;;;7.90;;
76896;SDS011;65856;52.178;21.176;2023-06-26T06:02:20;13.60;;;7.30;;
76896;SDS011;65856;52.178;21.176;2023-06-26T06:04:46;11.00;;;7.30;;
76896;SDS011;65856;52.178;21.176;2023-06-26T06:07:12;10.10;;;6.20;;
76896;SDS011;65856;52.178;21.176;2023-06-26T06:09:37;10.90;;;6.20;;
76896;SDS011;65856;52.178;21.176;2023-06-26T06:12:06;8.10;;;6.20;;
76896;SDS011;65856;52.178;21.176;2023-06-26T06:14:34;11.30;;;6.60;;
76896;SDS011;65856;52.178;21.176;2023-06-26T06:17:00;10.10;;;6.40;;
76896;SDS011;65856;52.178;21.176;2023-06-26T06:19:26;13.80;;;6.70;;
76896;SDS011;65856;52.178;21.176;2023-06-26T06:21:52;12.20;;;7.00;;
76896;SDS011;65856;52.178;21.176;2023-06-26T06:24:18;12.00;;;6.80;;
76896;SDS011;65856;52.178;21.176;2023-06-26T06:26:45;14.80;;;6.90;;
76896;SDS011;65856;52.178;21.176;2023-06-26T06:29:10;16.30;;;6.40;;
76896;SDS011;65856;52.178;21.176;2023-06-26T06:31:36;16.40;;;6.50;;
76896;SDS011;65856;52.178;21.176;2023-06-26T06:34:01;15.10;;;6.40;;
76896;SDS011;65856;52.178;21.176;2023-06-26T06:36:27;18.60;;;6.40;;
76896;SDS011;65856;52.178;21.176;2023-06-26T06:38:52;17.20;;;6.60;;
76896;SDS011;65856;52.178;21.176;2023-06-26T06:41:19;20.50;;;6.80;;
76896;SDS011;65856;52.178;21.176;2023-06-26T06:43:45;20.90;;;6.80;;
76896;SDS011;65856;52.178;21.176;2023-06-26T06:46:11;13.60;;;5.70;;
76896;SDS011;65856;52.178;21.176;2023-06-26T06:48:36;15.50;;;6.40;;
76896;SDS011;65856;52.178;21.176;2023-06-26T06:51:02;13.00;;;6.10;;
76896;SDS011;65856;52.178;21.176;2023-06-26T06:53:28;17.60;;;6.10;;
76896;SDS011;65856;52.178;21.176;2023-06-26T06:55:54;11.70;;;5.60;;
76896;SDS011;65856;52.178;21.176;2023-06-26T06:58:19;9.50;;;5.00;;
76896;SDS011;65856;52.178;21.176;2023-06-26T07:00:45;9.90;;;5.20;;
76896;SDS011;65856;52.178;21.176;2023-06-26T07:03:11;5.70;;;4.30;;
76896;SDS011;65856;52.178;21.176;2023-06-26T07:05:37;9.30;;;5.20;;
76896;SDS011;65856;52.178;21.176;2023-06-26T07:08:03;7.30;;;4.80;;
76896;SDS011;65856;52.178;21.176;2023-06-26T07:10:29;6.10;;;5.00;;
76896;SDS011;65856;52.178;21.176;2023-06-26T07:12:56;7.40;;;4.50;;
76896;SDS011;65856;52.178;21.176;2023-06-26T07:15:21;5.30;;;4.10;;
76896;SDS011;65856;52.178;21.176;2023-06-26T07:17:47;5.50;;;4.50;;
76896;SDS011;65856;52.178;21.176;2023-06-26T07:20:13;7.20;;;5.10;;
76896;SDS011;65856;52.178;21.176;2023-06-26T07:22:41;9.10;;;4.50;;
76896;SDS011;65856;52.178;21.176;2023-06-26T07:25:08;8.50;;;4.90;;
76896;SDS011;65856;52.178;21.176;2023-06-26T07:27:35;7.10;;;4.70;;
76896;SDS011;65856;52.178;21.176;2023-06-26T07:30:01;7.90;;;4.70;;
76896;SDS011;65856;52.178;21.176;2023-06-26T07:32:27;8.30;;;4.80;;
76896;SDS011;65856;52.178;21.176;2023-06-26T07:34:53;7.00;;;4.60;;
76896;SDS011;65856;52.178;21.176;2023-06-26T07:37:18;8.80;;;5.00;;
76896;SDS011;65856;52.178;21.176;2023-06-26T07:39:44;8.10;;;5.10;;
76896;SDS011;65856;52.178;21.176;2023-06-26T07:42:09;9.30;;;5.20;;
76896;SDS011;65856;52.178;21.176;2023-06-26T07:44:34;6.50;;;4.80;;
76896;SDS011;65856;52.178;21.176;2023-06-26T07:47:00;9.00;;;5.30;;
76896;SDS011;65856;52.178;21.176;2023-06-26T07:49:25;11.60;;;5.10;;
76896;SDS011;65856;52.178;21.176;2023-06-26T07:51:51;8.80;;;4.90;;
76896;SDS011;65856;52.178;21.176;2023-06-26T07:54:16;7.30;;;5.20;;
76896;SDS011;65856;52.178;21.176;2023-06-26T07:57:03;6.50;;;5.40;;
76896;SDS011;65856;52.178;21.176;2023-06-26T07:59:32;8.90;;;5.00;;
76896;SDS011;65856;52.178;21.176;2023-06-26T08:01:59;11.00;;;5.20;;
76896;SDS011;65856;52.178;21.176;2023-06-26T08:04:26;8.10;;;5.00;;
76896;SDS011;65856;52.178;21.176;2023-06-26T08:06:56;11.00;;;5.50;;
76896;SDS011;65856;52.178;21.176;2023-06-26T08:09:26;6.10;;;4.50;;
76896;SDS011;65856;52.178;21.176;2023-06-26T08:11:54;6.10;;;3.80;;
76896;SDS011;65856;52.178;21.176;2023-06-26T08:14:20;4.70;;;3.60;;
76896;SDS011;65856;52.178;21.176;2023-06-26T08:16:47;5.70;;;4.10;;
76896;SDS011;65856;52.178;21.176;2023-06-26T08:19:14;5.80;;;4.10;;
76896;SDS011;65856;52.178;21.176;2023-06-26T08:21:41;6.30;;;3.70;;
76896;SDS011;65856;52.178;21.176;2023-06-26T08:24:09;9.20;;;3.80;;
76896;SDS011;65856;52.178;21.176;2023-06-26T08:26:35;5.20;;;3.80;;
76896;SDS011;65856;52.178;21.176;2023-06-26T08:29:02;6.40;;;3.60;;
76896;SDS011;65856;52.178;21.176;2023-06-26T08:34:03;6.20;;;4.00;;
76896;SDS011;65856;52.178;21.176;2023-06-26T08:36:30;6.90;;;3.50;;
76896;SDS011;65856;52.178;21.176;2023-06-26T08:38:57;4.90;;;3.40;;
76896;SDS011;65856;52.178;21.176;2023-06-26T08:41:23;4.80;;;4.10;;
76896;SDS011;65856;52.178;21.176;2023-06-26T08:43:49;4.70;;;3.60;;
76896;SDS011;65856;52.178;21.176;2023-06-26T08:46:17;5.00;;;3.70;;
76896;SDS011;65856;52.178;21.176;2023-06-26T08:48:48;4.30;;;3.60;;
76896;SDS011;65856;52.178;21.176;2023-06-26T08:51:28;4.50;;;3.40;;
76896;SDS011;65856;52.178;21.176;2023-06-26T08:53:59;5.90;;;3.70;;
76896;SDS011;65856;52.178;21.176;2023-06-26T08:56:40;5.60;;;3.80;;
76896;SDS011;65856;52.178;21.176;2023-06-26T08:59:08;6.10;;;3.70;;
76896;SDS011;65856;52.178;21.176;2023-06-26T09:01:40;4.50;;;3.20;;
76896;SDS011;65856;52.178;21.176;2023-06-26T09:04:06;6.60;;;3.30;;
76896;SDS011;65856;52.178;21.176;2023-06-26T09:06:32;4.00;;;3.30;;
76896;SDS011;65856;52.178;21.176;2023-06-26T09:08:58;5.30;;;3.70;;
76896;SDS011;65856;52.178;21.176;2023-06-26T09:11:24;6.10;;;3.70;;
76896;SDS011;65856;52.178;21.176;2023-06-26T09:13:50;4.40;;;3.30;;
76896;SDS011;65856;52.178;21.176;2023-06-26T09:16:16;3.80;;;3.20;;
76896;SDS011;65856;52.178;21.176;2023-06-26T09:18:42;4.10;;;3.50;;
76896;SDS011;65856;52.178;21.176;2023-06-26T09:21:11;4.60;;;3.70;;
76896;SDS011;65856;52.178;21.176;2023-06-26T09:23:36;3.80;;;3.50;;
76896;SDS011;65856;52.178;21.176;2023-06-26T09:26:06;4.30;;;3.80;;
76896;SDS011;65856;52.178;21.176;2023-06-26T09:28:32;5.60;;;3.50;;
76896;SDS011;65856;52.178;21.176;2023-06-26T09:31:07;6.90;;;3.20;;
76896;SDS011;65856;52.178;21.176;2023-06-26T09:33:36;4.30;;;3.60;;
76896;SDS011;65856;52.178;21.176;2023-06-26T09:36:07;5.30;;;3.80;;
76896;SDS011;65856;52.178;21.176;2023-06-26T09:38:35;3.80;;;3.50;;
76896;SDS011;65856;52.178;21.176;2023-06-26T09:41:02;3.50;;;3.10;;
76896;SDS011;65856;52.178;21.176;2023-06-26T09:43:28;8.10;;;3.40;;
76896;SDS011;65856;52.178;21.176;2023-06-26T09:45:54;4.20;;;3.30;;
76896;SDS011;65856;52.178;21.176;2023-06-26T09:48:20;3.90;;;3.00;;
76896;SDS011;65856;52.178;21.176;2023-06-26T09:50:46;5.40;;;3.30;;
76896;SDS011;65856;52.178;21.176;2023-06-26T09:53:12;4.10;;;3.50;;
76896;SDS011;65856;52.178;21.176;2023-06-26T09:55:39;4.40;;;3.00;;
76896;SDS011;65856;52.178;21.176;2023-06-26T09:58:10;3.40;;;3.00;;
76896;SDS011;65856;52.178;21.176;2023-06-26T10:00:40;4.30;;;3.20;;
76896;SDS011;65856;52.178;21.176;2023-06-26T10:03:12;6.80;;;3.40;;
76896;SDS011;65856;52.178;21.176;2023-06-26T10:05:39;3.80;;;3.50;;
76896;SDS011;65856;52.178;21.176;2023-06-26T10:08:05;5.10;;;3.10;;
76896;SDS011;65856;52.178;21.176;2023-06-26T10:10:33;3.70;;;2.90;;
76896;SDS011;65856;52.178;21.176;2023-06-26T10:18:11;5.30;;;3.20;;
76896;SDS011;65856;52.178;21.176;2023-06-26T10:20:39;3.80;;;3.40;;
76896;SDS011;65856;52.178;21.176;2023-06-26T10:23:07;5.20;;;3.60;;
76896;SDS011;65856;52.178;21.176;2023-06-26T10:25:36;5.20;;;3.50;;
76896;SDS011;65856;52.178;21.176;2023-06-26T10:28:06;5.90;;;4.00;;
76896;SDS011;65856;52.178;21.176;2023-06-26T10:30:35;6.10;;;3.50;;
76896;SDS011;65856;52.178;21.176;2023-06-26T10:33:02;4.10;;;3.50;;
76896;SDS011;65856;52.178;21.176;2023-06-26T10:35:30;6.80;;;3.60;;
76896;SDS011;65856;52.178;21.176;2023-06-26T10:38:03;6.50;;;4.30;;
76896;SDS011;65856;52.178;21.176;2023-06-26T10:40:43;4.40;;;3.20;;
76896;SDS011;65856;52.178;21.176;2023-06-26T10:43:14;5.60;;;3.10;;
76896;SDS011;65856;52.178;21.176;2023-06-26T10:45:48;4.00;;;3.30;;
76896;SDS011;65856;52.178;21.176;2023-06-26T10:48:20;4.30;;;3.70;;
76896;SDS011;65856;52.178;21.176;2023-06-26T10:50:50;6.10;;;3.70;;
76896;SDS011;65856;52.178;21.176;2023-06-26T10:55:56;6.10;;;3.80;;
76896;SDS011;65856;52.178;21.176;2023-06-26T10:58:32;5.20;;;3.60;;
76896;SDS011;65856;52.178;21.176;2023-06-26T11:03:43;6.70;;;3.30;;
76896;SDS011;65856;52.178;21.176;2023-06-26T11:06:12;4.60;;;3.60;;
76896;SDS011;65856;52.178;21.176;2023-06-26T11:14:23;4.40;;;3.20;;
76896;SDS011;65856;52.178;21.176;2023-06-26T11:16:50;4.70;;;3.30;;
76896;SDS011;65856;52.178;21.176;2023-06-26T11:19:17;6.30;;;3.30;;
76896;SDS011;65856;52.178;21.176;2023-06-26T11:21:44;4.10;;;3.40;;
76896;SDS011;65856;52.178;21.176;2023-06-26T11:24:12;4.00;;;3.10;;
76896;SDS011;65856;52.178;21.176;2023-06-26T11:26:43;3.80;;;2.90;;
76896;SDS011;65856;52.178;21.176;2023-06-26T11:29:10;3.50;;;3.20;;
76896;SDS011;65856;52.178;21.176;2023-06-26T11:31:41;4.60;;;3.10;;
76896;SDS011;65856;52.178;21.176;2023-06-26T11:34:12;3.90;;;3.10;;
76896;SDS011;65856;52.178;21.176;2023-06-26T11:36:40;5.90;;;3.20;;
76896;SDS011;65856;52.178;21.176;2023-06-26T11:39:08;4.80;;;3.40;;
76896;SDS011;65856;52.178;21.176;2023-06-26T11:41:39;4.50;;;3.00;;
76896;SDS011;65856;52.178;21.176;2023-06-26T11:44:08;5.00;;;3.00;;
76896;SDS011;65856;52.178;21.176;2023-06-26T11:46:36;5.30;;;3.50;;
76896;SDS011;65856;52.178;21.176;2023-06-26T11:49:04;4.40;;;3.10;;
76896;SDS011;65856;52.178;21.176;2023-06-26T11:51:33;5.50;;;3.10;;
76896;SDS011;65856;52.178;21.176;2023-06-26T11:54:02;6.40;;;3.30;;
76896;SDS011;65856;52.178;21.176;2023-06-26T11:56:29;3.90;;;3.20;;
76896;SDS011;65856;52.178;21.176;2023-06-26T12:01:41;6.70;;;3.30;;
76896;SDS011;65856;52.178;21.176;2023-06-26T12:04:13;4.80;;;3.40;;
76896;SDS011;65856;52.178;21.176;2023-06-26T12:06:53;5.70;;;3.70;;
76896;SDS011;65856;52.178;21.176;2023-06-26T12:09:22;5.10;;;3.20;;
76896;SDS011;65856;52.178;21.176;2023-06-26T12:11:53;5.00;;;3.40;;
76896;SDS011;65856;52.178;21.176;2023-06-26T12:16:47;5.10;;;3.30;;
76896;SDS011;65856;52.178;21.176;2023-06-26T12:19:13;3.70;;;3.30;;
76896;SDS011;65856;52.178;21.176;2023-06-26T12:24:16;3.80;;;3.00;;
76896;SDS011;65856;52.178;21.176;2023-06-26T12:26:47;4.60;;;3.20;;
76896;SDS011;65856;52.178;21.176;2023-06-26T12:29:32;4.80;;;3.40;;
76896;SDS011;65856;52.178;21.176;2023-06-26T12:31:59;7.60;;;3.50;;
76896;SDS011;65856;52.178;21.176;2023-06-26T12:34:28;5.10;;;3.00;;
76896;SDS011;65856;52.178;21.176;2023-06-26T12:37:05;11.20;;;3.40;;
76896;SDS011;65856;52.178;21.176;2023-06-26T12:39:47;3.60;;;3.10;;
76896;SDS011;65856;52.178;21.176;2023-06-26T12:42:18;10.00;;;3.40;;
76896;SDS011;65856;52.178;21.176;2023-06-26T12:44:45;3.80;;;3.00;;
76896;SDS011;65856;52.178;21.176;2023-06-26T12:47:12;3.20;;;2.90;;
76896;SDS011;65856;52.178;21.176;2023-06-26T12:49:41;5.70;;;3.00;;
76896;SDS011;65856;52.178;21.176;2023-06-26T12:52:11;5.40;;;3.00;;
76896;SDS011;65856;52.178;21.176;2023-06-26T12:54:39;3.20;;;2.70;;
76896;SDS011;65856;52.178;21.176;2023-06-26T12:57:08;4.70;;;2.90;;
76896;SDS011;65856;52.178;21.176;2023-06-26T12:59:35;5.60;;;2.90;;
76896;SDS011;65856;52.178;21.176;2023-06-26T13:02:02;6.10;;;3.00;;
76896;SDS011;65856;52.178;21.176;2023-06-26T13:04:29;5.20;;;3.20;;
76896;SDS011;65856;52.178;21.176;2023-06-26T13:06:55;4.90;;;2.90;;
76896;SDS011;65856;52.178;21.176;2023-06-26T13:09:23;7.40;;;2.90;;
76896;SDS011;65856;52.178;21.176;2023-06-26T13:11:52;3.10;;;2.70;;
76896;SDS011;65856;52.178;21.176;2023-06-26T13:14:18;7.80;;;3.10;;
76896;SDS011;65856;52.178;21.176;2023-06-26T13:16:44;11.10;;;3.20;;
76896;SDS011;65856;52.178;21.176;2023-06-26T13:19:10;10.60;;;3.20;;
76896;SDS011;65856;52.178;21.176;2023-06-26T13:21:35;9.10;;;2.90;;
76896;SDS011;65856;52.178;21.176;2023-06-26T13:24:02;4.50;;;2.90;;
76896;SDS011;65856;52.178;21.176;2023-06-26T13:26:29;6.20;;;3.20;;
76896;SDS011;65856;52.178;21.176;2023-06-26T13:28:55;3.10;;;2.80;;
76896;SDS011;65856;52.178;21.176;2023-06-26T13:31:21;5.70;;;2.90;;
76896;SDS011;65856;52.178;21.176;2023-06-26T13:33:47;3.70;;;2.80;;
76896;SDS011;65856;52.178;21.176;2023-06-26T13:36:17;4.20;;;3.20;;
76896;SDS011;65856;52.178;21.176;2023-06-26T13:38:43;4.80;;;2.90;;
76896;SDS011;65856;52.178;21.176;2023-06-26T13:41:09;4.60;;;3.20;;
76896;SDS011;65856;52.178;21.176;2023-06-26T13:43:35;6.60;;;2.90;;
76896;SDS011;65856;52.178;21.176;2023-06-26T13:46:01;3.40;;;3.00;;
76896;SDS011;65856;52.178;21.176;2023-06-26T13:48:28;4.60;;;2.90;;
76896;SDS011;65856;52.178;21.176;2023-06-26T13:50:54;3.70;;;3.20;;
76896;SDS011;65856;52.178;21.176;2023-06-26T13:53:20;4.50;;;3.10;;
76896;SDS011;65856;52.178;21.176;2023-06-26T13:55:46;4.90;;;3.10;;
76896;SDS011;65856;52.178;21.176;2023-06-26T13:58:11;4.80;;;2.90;;
76896;SDS011;65856;52.178;21.176;2023-06-26T14:00:38;5.30;;;3.00;;
76896;SDS011;65856;52.178;21.176;2023-06-26T14:03:05;4.50;;;2.90;;
76896;SDS011;65856;52.178;21.176;2023-06-26T14:05:33;3.60;;;2.70;;
76896;SDS011;65856;52.178;21.176;2023-06-26T14:07:59;3.60;;;2.90;;
76896;SDS011;65856;52.178;21.176;2023-06-26T14:10:27;4.90;;;3.00;;
76896;SDS011;65856;52.178;21.176;2023-06-26T14:12:53;4.80;;;2.80;;
76896;SDS011;65856;52.178;21.176;2023-06-26T14:15:18;4.80;;;2.90;;
76896;SDS011;65856;52.178;21.176;2023-06-26T14:17:44;3.90;;;3.00;;
76896;SDS011;65856;52.178;21.176;2023-06-26T14:20:10;4.10;;;3.00;;
76896;SDS011;65856;52.178;21.176;2023-06-26T14:22:39;13.30;;;3.60;;
76896;SDS011;65856;52.178;21.176;2023-06-26T14:25:07;7.90;;;3.30;;
76896;SDS011;65856;52.178;21.176;2023-06-26T14:27:36;9.20;;;3.40;;
76896;SDS011;65856;52.178;21.176;2023-06-26T14:30:03;3.40;;;3.00;;
76896;SDS011;65856;52.178;21.176;2023-06-26T14:32:30;6.00;;;3.10;;
76896;SDS011;65856;52.178;21.176;2023-06-26T14:34:56;8.50;;;3.30;;
76896;SDS011;65856;52.178;21.176;2023-06-26T14:37:23;4.50;;;2.90;;
76896;SDS011;65856;52.178;21.176;2023-06-26T14:39:49;3.90;;;3.00;;
76896;SDS011;65856;52.178;21.176;2023-06-26T14:42:15;3.60;;;3.30;;
76896;SDS011;65856;52.178;21.176;2023-06-26T14:44:41;4.60;;;3.00;;
76896;SDS011;65856;52.178;21.176;2023-06-26T14:47:06;4.20;;;2.90;;
76896;SDS011;65856;52.178;21.176;2023-06-26T14:49:32;6.30;;;3.30;;
76896;SDS011;65856;52.178;21.176;2023-06-26T14:51:57;3.90;;;3.20;;
76896;SDS011;65856;52.178;21.176;2023-06-26T14:54:24;3.50;;;3.10;;
76896;SDS011;65856;52.178;21.176;2023-06-26T14:56:49;7.80;;;3.10;;
76896;SDS011;65856;52.178;21.176;2023-06-26T14:59:15;4.00;;;3.20;;